Lewiston, ID (83501)

8:12 PM PDT on September 01, 2014 (GMT -0700)
Nick's Weather Station | Change Station
CLOSE
Current Station
Personal Weather Station
Location: Lewiston, ID
Elevation: 1076 ft
Nearby Weather Stations

Elev 1076 ft 46.37 °N, 117.04 °W | Updated 2 seconds ago

Clear
Clear
73.3 °F
Feels Like 77 °F
N
1.6
Wind Variable Wind from ESE
Gusts 1.6 mph

Today
High -- | Low -- °F
--% Chance of Precip.
Yesterday
High -- | Low -- °F
Precip. -- in
6:08 AM 7:26 PM
Waxing Crescent, 47% visible
Pressure 29.91 in
Visibility 10.0 miles
Clouds Clear
Heat Index 77 °F
Dew Point 45 °F
Humidity 37%
Rainfall 0.00 in
Snow Depth Not available.
UV 0 out of 12
Pollen 6.70 out of 12
Air Quality Not available.
Flu Activity Not available.
METAR KLWS 020256Z 33006KT 10SM CLR 23/05 A2993 RMK AO2 SLP129 T02280050 55009 $

More Conditions Fewer Conditions

Pressure 29.91 in
Visibility 10.0 miles
Clouds Clear
Heat Index 77 °F
Dew Point 45 °F
Humidity 37%
Rainfall 0.00 in
Snow Depth Not available.
UV 0 out of 12
Pollen 6.70 out of 12
Air Quality Not available.
Flu Activity Not available.
METAR KLWS 020256Z 33006KT 10SM CLR 23/05 A2993 RMK AO2 SLP129 T02280050 55009 $

More Conditions Fewer Conditions

10-Day Weather Forecast

Almanac

Astronomy

Sep. 01, 2014 Rise Set
Actual Time 6:08 AM PDT 7:26 PM PDT
Civil Twilight 5:37 AM PDT 7:57 PM PDT
Nautical Twilight 4:59 AM PDT 8:35 PM PDT
Astronomical Twilight 4:19 AM PDT 9:14 PM PDT
Moon 1:22 PM PDT (9/1) 11:07 PM PDT (9/1)
Length of Visible Light 14h 20m
Length of Day
13h 18m
Tomorrow will be 3m 11s shorter.
Waxing Crescent, 47% of the Moon is Illuminated
Today
Waxing Crescent
Sep 2
First Quarter
Sep 8
Full
Sep 15
Last Quarter
Sep 24
New

Today's Extremes

State Highs State Lows

Community

WunderPhotos

Upload Photos

1,749,539 photos uploaded!

WunderBlogs® & News

Nearby

Snow Depth

Station Depth Elevation
Moscow Mountain 0 in 4700 ft
Mica Creek 0 in 4750 ft
Hemlock Butte 0 in 5810 ft
Lost Lake 0 in 6110 ft
Crater Meadows 0 in 5960 ft

Earthquake Activity

City Distance Mag. Time & Date
No recent earthquake activity has been reported nearby.
Minimum magnitude displayed is 2.5.

Coastal Water Temperatures

Place Temperature
No Stations Reporting

Nearby Weather Stations